EZY8675 EHAM-EGKK
Flight info
| Callsign | EZY8675 |
|---|---|
| Flight time | 0h 45m |
| Altitude | 22000 |
| Route | IDRID L980 ABNED Z344 AMRIV Q63 ARREK Y4 TEBRA |
| Aircraft | A320/M-SDE2E3FGHIJ1RWXYZ/LB1 |
Departure
| Time | 2026-04-17 09:53 |
|---|---|
| Airport | Amsterdam Airport Schiphol (EHAM) |
Arrival
| Time | 2026-04-17 10:39 |
|---|---|
| Airport | London Gatwick Airport (EGKK) |
| Time | Latitude | Longitude | Altitude | Speed | Heading |
|---|---|---|---|---|---|
| 2026-04-17 09:27 | 52.30579 | 4.76700 | -4 ft | 0 kts | 215° |
| 2026-04-17 09:45 | 52.30587 | 4.76708 | -5 ft | 2 kts | 213° |
| 2026-04-17 09:45 | 52.30600 | 4.76723 | -5 ft | 2 kts | 216° |
| 2026-04-17 09:45 | 52.30614 | 4.76738 | -4 ft | 2 kts | 209° |
| 2026-04-17 09:45 | 52.30629 | 4.76750 | -4 ft | 2 kts | 197° |
| 2026-04-17 09:46 | 52.30645 | 4.76756 | -5 ft | 2 kts | 174° |
| 2026-04-17 09:46 | 52.30657 | 4.76752 | -5 ft | 1 kts | 153° |
| 2026-04-17 09:46 | 52.30659 | 4.76751 | -5 ft | 0 kts | 149° |
| 2026-04-17 09:47 | 52.30656 | 4.76753 | -5 ft | 2 kts | 149° |
| 2026-04-17 09:47 | 52.30636 | 4.76788 | -5 ft | 6 kts | 121° |
| 2026-04-17 09:48 | 52.30643 | 4.76861 | -3 ft | 8 kts | 63° |
| 2026-04-17 09:48 | 52.30657 | 4.76964 | -3 ft | 12 kts | 91° |
| 2026-04-17 09:48 | 52.30651 | 4.77115 | -4 ft | 15 kts | 94° |
| 2026-04-17 09:48 | 52.30645 | 4.77295 | -4 ft | 16 kts | 93° |
| 2026-04-17 09:49 | 52.30635 | 4.77469 | -2 ft | 15 kts | 114° |
| 2026-04-17 09:49 | 52.30552 | 4.77560 | -3 ft | 15 kts | 152° |
| 2026-04-17 09:49 | 52.30526 | 4.77582 | -3 ft | 1 kts | 152° |
| 2026-04-17 09:49 | 52.30525 | 4.77583 | -3 ft | 0 kts | 152° |
| 2026-04-17 09:50 | 52.30507 | 4.77598 | -3 ft | 5 kts | 153° |
| 2026-04-17 09:50 | 52.30463 | 4.77632 | -1 ft | 9 kts | 155° |
| 2026-04-17 09:51 | 52.30400 | 4.77594 | -3 ft | 5 kts | 237° |
| 2026-04-17 09:51 | 52.30389 | 4.77566 | -3 ft | 0 kts | 237° |
| 2026-04-17 09:52 | 52.30383 | 4.77550 | -3 ft | 8 kts | 238° |
| 2026-04-17 09:52 | 52.30209 | 4.77102 | -5 ft | 82 kts | 237° |
| 2026-04-17 09:52 | 52.29804 | 4.76045 | -7 ft | 138 kts | 238° |
| 2026-04-17 09:53 | 52.29213 | 4.74518 | 120 ft | 170 kts | 237° |
| 2026-04-17 09:53 | 52.28591 | 4.72821 | 811 ft | 172 kts | 237° |
| 2026-04-17 09:53 | 52.27960 | 4.71174 | 1479 ft | 180 kts | 236° |
| 2026-04-17 09:53 | 52.27156 | 4.69449 | 1852 ft | 203 kts | 223° |
| 2026-04-17 09:54 | 52.26069 | 4.67761 | 2345 ft | 227 kts | 223° |
| 2026-04-17 09:54 | 52.24880 | 4.65871 | 2956 ft | 247 kts | 227° |
| 2026-04-17 09:54 | 52.24019 | 4.63423 | 3819 ft | 254 kts | 251° |
| 2026-04-17 09:54 | 52.23481 | 4.60664 | 4783 ft | 257 kts | 250° |
| 2026-04-17 09:55 | 52.22906 | 4.57893 | 5748 ft | 259 kts | 250° |
| 2026-04-17 09:55 | 52.22312 | 4.55094 | 6658 ft | 262 kts | 249° |
| 2026-04-17 09:55 | 52.21709 | 4.52269 | 7488 ft | 265 kts | 249° |
| 2026-04-17 09:55 | 52.21103 | 4.49417 | 8341 ft | 268 kts | 249° |
| 2026-04-17 09:56 | 52.20493 | 4.46529 | 9212 ft | 271 kts | 249° |
| 2026-04-17 09:56 | 52.19880 | 4.43621 | 10075 ft | 273 kts | 249° |
| 2026-04-17 09:56 | 52.19255 | 4.40655 | 10607 ft | 286 kts | 249° |
| 2026-04-17 09:56 | 52.18580 | 4.37456 | 10881 ft | 308 kts | 249° |
| 2026-04-17 09:57 | 52.17873 | 4.34107 | 11456 ft | 316 kts | 249° |
| 2026-04-17 09:57 | 52.17152 | 4.30696 | 12171 ft | 320 kts | 249° |
| 2026-04-17 09:57 | 52.16422 | 4.27252 | 12901 ft | 324 kts | 249° |
| 2026-04-17 09:57 | 52.15682 | 4.23773 | 13623 ft | 327 kts | 249° |
| 2026-04-17 09:58 | 52.14933 | 4.20259 | 14300 ft | 330 kts | 249° |
| 2026-04-17 09:58 | 52.14173 | 4.16706 | 14941 ft | 333 kts | 249° |
| 2026-04-17 09:58 | 52.13406 | 4.13129 | 15582 ft | 336 kts | 249° |
| 2026-04-17 09:58 | 52.12635 | 4.09526 | 16220 ft | 339 kts | 249° |
| 2026-04-17 09:59 | 52.11858 | 4.05895 | 16854 ft | 341 kts | 249° |
| 2026-04-17 09:59 | 52.11073 | 4.02239 | 17473 ft | 344 kts | 250° |
| 2026-04-17 09:59 | 52.10279 | 3.98549 | 18103 ft | 347 kts | 250° |
| 2026-04-17 09:59 | 52.09480 | 3.94840 | 18692 ft | 349 kts | 250° |
| 2026-04-17 10:00 | 52.08670 | 3.91092 | 19220 ft | 352 kts | 250° |
| 2026-04-17 10:00 | 52.07854 | 3.87329 | 19769 ft | 354 kts | 250° |
| 2026-04-17 10:00 | 52.07032 | 3.83538 | 20304 ft | 357 kts | 250° |
| 2026-04-17 10:00 | 52.06205 | 3.79721 | 20858 ft | 359 kts | 250° |
| 2026-04-17 10:01 | 52.05374 | 3.75895 | 21394 ft | 361 kts | 250° |
| 2026-04-17 10:01 | 52.04534 | 3.72036 | 21931 ft | 364 kts | 250° |
| 2026-04-17 10:01 | 52.03684 | 3.68145 | 22167 ft | 365 kts | 250° |
| 2026-04-17 10:01 | 52.02849 | 3.64333 | 22208 ft | 351 kts | 250° |
| 2026-04-17 10:02 | 52.02038 | 3.60628 | 22202 ft | 346 kts | 250° |
| 2026-04-17 10:02 | 52.01232 | 3.56961 | 22200 ft | 345 kts | 250° |
| 2026-04-17 10:02 | 52.00426 | 3.53295 | 22210 ft | 344 kts | 250° |
| 2026-04-17 10:02 | 51.99510 | 3.49715 | 22204 ft | 344 kts | 242° |
| 2026-04-17 10:03 | 51.98206 | 3.46473 | 22196 ft | 344 kts | 234° |
| 2026-04-17 10:03 | 51.96786 | 3.43340 | 22211 ft | 344 kts | 234° |
| 2026-04-17 10:03 | 51.95387 | 3.40254 | 22200 ft | 344 kts | 234° |
| 2026-04-17 10:03 | 51.93951 | 3.37091 | 22205 ft | 344 kts | 234° |
| 2026-04-17 10:04 | 51.92553 | 3.34009 | 22207 ft | 344 kts | 234° |
| 2026-04-17 10:04 | 51.91120 | 3.30850 | 22209 ft | 344 kts | 234° |
| 2026-04-17 10:04 | 51.89722 | 3.27768 | 22211 ft | 344 kts | 234° |
| 2026-04-17 10:04 | 51.88305 | 3.24653 | 22204 ft | 344 kts | 234° |
| 2026-04-17 10:05 | 51.86886 | 3.21540 | 22205 ft | 344 kts | 234° |
| 2026-04-17 10:05 | 51.85471 | 3.18429 | 22205 ft | 343 kts | 235° |
| 2026-04-17 10:05 | 51.84256 | 3.15113 | 22218 ft | 342 kts | 244° |
| 2026-04-17 10:05 | 51.83188 | 3.11680 | 22219 ft | 342 kts | 243° |
| 2026-04-17 10:06 | 51.82108 | 3.08250 | 22205 ft | 342 kts | 243° |
| 2026-04-17 10:06 | 51.81022 | 3.04827 | 22218 ft | 342 kts | 243° |
| 2026-04-17 10:06 | 51.79936 | 3.01415 | 22215 ft | 342 kts | 243° |
| 2026-04-17 10:06 | 51.78850 | 2.97998 | 22209 ft | 342 kts | 243° |
| 2026-04-17 10:07 | 51.77764 | 2.94582 | 22203 ft | 342 kts | 243° |
| 2026-04-17 10:07 | 51.76677 | 2.91165 | 22205 ft | 342 kts | 243° |
| 2026-04-17 10:07 | 51.75590 | 2.87754 | 22215 ft | 342 kts | 243° |
| 2026-04-17 10:07 | 51.74503 | 2.84344 | 22214 ft | 342 kts | 243° |
| 2026-04-17 10:08 | 51.73418 | 2.80937 | 22206 ft | 342 kts | 243° |
| 2026-04-17 10:08 | 51.72331 | 2.77532 | 22203 ft | 341 kts | 243° |
| 2026-04-17 10:08 | 51.71240 | 2.74124 | 22206 ft | 341 kts | 243° |
| 2026-04-17 10:08 | 51.70151 | 2.70732 | 22205 ft | 341 kts | 243° |
| 2026-04-17 10:09 | 51.69150 | 2.67270 | 22201 ft | 341 kts | 250° |
| 2026-04-17 10:09 | 51.68718 | 2.64840 | 22202 ft | 341 kts | 257° |
| 2026-04-17 10:09 | 51.68355 | 2.61056 | 22202 ft | 342 kts | 261° |
| 2026-04-17 10:09 | 51.67906 | 2.55991 | 22205 ft | 341 kts | 261° |
| 2026-04-17 10:10 | 51.67681 | 2.53483 | 22204 ft | 341 kts | 261° |
| 2026-04-17 10:10 | 51.67340 | 2.49697 | 22204 ft | 341 kts | 260° |
| 2026-04-17 10:10 | 51.66996 | 2.45917 | 22206 ft | 341 kts | 260° |
| 2026-04-17 10:11 | 51.66302 | 2.38365 | 22205 ft | 341 kts | 260° |
| 2026-04-17 10:11 | 51.65953 | 2.34590 | 22206 ft | 341 kts | 260° |
| 2026-04-17 10:11 | 51.65603 | 2.30806 | 22207 ft | 341 kts | 260° |
| 2026-04-17 10:11 | 51.65253 | 2.27034 | 22206 ft | 341 kts | 260° |
| 2026-04-17 10:12 | 51.64901 | 2.23263 | 22205 ft | 341 kts | 260° |
| 2026-04-17 10:12 | 51.64545 | 2.19488 | 22208 ft | 341 kts | 260° |
| 2026-04-17 10:12 | 51.64190 | 2.15770 | 22213 ft | 340 kts | 260° |
| 2026-04-17 10:12 | 51.63833 | 2.12011 | 22211 ft | 340 kts | 260° |
| 2026-04-17 10:13 | 51.63478 | 2.08248 | 22210 ft | 340 kts | 260° |
| 2026-04-17 10:13 | 51.63129 | 2.04486 | 22119 ft | 337 kts | 260° |
| 2026-04-17 10:13 | 51.62788 | 2.00791 | 21858 ft | 329 kts | 261° |
| 2026-04-17 10:13 | 51.62458 | 1.97186 | 21599 ft | 322 kts | 261° |
| 2026-04-17 10:14 | 51.62137 | 1.93662 | 21339 ft | 316 kts | 261° |
| 2026-04-17 10:14 | 51.61818 | 1.90173 | 21089 ft | 314 kts | 260° |
| 2026-04-17 10:14 | 51.61470 | 1.86717 | 20836 ft | 313 kts | 256° |
| 2026-04-17 10:14 | 51.60739 | 1.83437 | 20585 ft | 311 kts | 243° |
| 2026-04-17 10:15 | 51.59563 | 1.80556 | 20252 ft | 308 kts | 231° |
| 2026-04-17 10:15 | 51.58158 | 1.78014 | 19845 ft | 308 kts | 230° |
| 2026-04-17 10:15 | 51.56740 | 1.75448 | 19436 ft | 307 kts | 230° |
| 2026-04-17 10:15 | 51.55317 | 1.72900 | 19141 ft | 303 kts | 229° |
| 2026-04-17 10:16 | 51.53888 | 1.70509 | 19076 ft | 291 kts | 227° |
| 2026-04-17 10:16 | 51.52487 | 1.68250 | 19013 ft | 282 kts | 227° |
| 2026-04-17 10:16 | 51.51095 | 1.66028 | 18956 ft | 282 kts | 227° |
| 2026-04-17 10:16 | 51.49701 | 1.63802 | 18894 ft | 284 kts | 227° |
| 2026-04-17 10:17 | 51.48251 | 1.61475 | 18896 ft | 302 kts | 227° |
| 2026-04-17 10:17 | 51.46760 | 1.59068 | 18894 ft | 306 kts | 227° |
| 2026-04-17 10:17 | 51.45257 | 1.56631 | 18895 ft | 307 kts | 227° |
| 2026-04-17 10:17 | 51.43756 | 1.54193 | 18891 ft | 308 kts | 227° |
| 2026-04-17 10:18 | 51.42251 | 1.51754 | 18895 ft | 308 kts | 227° |
| 2026-04-17 10:18 | 51.40750 | 1.49320 | 18897 ft | 307 kts | 227° |
| 2026-04-17 10:18 | 51.39247 | 1.46882 | 18900 ft | 307 kts | 227° |
| 2026-04-17 10:18 | 51.37746 | 1.44448 | 18901 ft | 308 kts | 227° |
| 2026-04-17 10:19 | 51.36222 | 1.41974 | 18899 ft | 321 kts | 227° |
| 2026-04-17 10:19 | 51.34620 | 1.39370 | 18899 ft | 336 kts | 227° |
| 2026-04-17 10:19 | 51.32988 | 1.36721 | 18898 ft | 340 kts | 227° |
| 2026-04-17 10:19 | 51.31320 | 1.34025 | 18901 ft | 341 kts | 227° |
| 2026-04-17 10:20 | 51.29650 | 1.31330 | 18899 ft | 341 kts | 227° |
| 2026-04-17 10:20 | 51.27996 | 1.28682 | 18696 ft | 332 kts | 227° |
| 2026-04-17 10:20 | 51.26381 | 1.26102 | 18455 ft | 325 kts | 227° |
| 2026-04-17 10:20 | 51.24803 | 1.23578 | 18189 ft | 318 kts | 227° |
| 2026-04-17 10:21 | 51.23257 | 1.21104 | 17916 ft | 311 kts | 227° |
| 2026-04-17 10:21 | 51.21746 | 1.18688 | 17653 ft | 305 kts | 227° |
| 2026-04-17 10:21 | 51.20255 | 1.16305 | 17391 ft | 302 kts | 227° |
| 2026-04-17 10:21 | 51.18774 | 1.13939 | 17131 ft | 301 kts | 227° |
| 2026-04-17 10:22 | 51.17304 | 1.11580 | 16874 ft | 299 kts | 227° |
| 2026-04-17 10:22 | 51.15839 | 1.09230 | 16620 ft | 298 kts | 227° |
| 2026-04-17 10:22 | 51.14373 | 1.06892 | 16364 ft | 297 kts | 227° |
| 2026-04-17 10:22 | 51.12917 | 1.04568 | 16113 ft | 296 kts | 227° |
| 2026-04-17 10:23 | 51.11463 | 1.02251 | 15863 ft | 295 kts | 227° |
| 2026-04-17 10:23 | 51.10016 | 0.99946 | 15611 ft | 294 kts | 227° |
| 2026-04-17 10:23 | 51.08569 | 0.97652 | 15374 ft | 293 kts | 226° |
| 2026-04-17 10:23 | 51.07124 | 0.95370 | 15127 ft | 292 kts | 227° |
| 2026-04-17 10:24 | 51.05800 | 0.93000 | 14894 ft | 290 kts | 236° |
| 2026-04-17 10:24 | 51.04836 | 0.90205 | 14650 ft | 288 kts | 245° |
| 2026-04-17 10:24 | 51.03991 | 0.87328 | 14410 ft | 287 kts | 245° |
| 2026-04-17 10:24 | 51.03142 | 0.84461 | 14177 ft | 286 kts | 245° |
| 2026-04-17 10:25 | 51.02291 | 0.81608 | 13939 ft | 284 kts | 245° |
| 2026-04-17 10:25 | 51.01447 | 0.78802 | 13641 ft | 281 kts | 245° |
| 2026-04-17 10:25 | 51.00915 | 0.75831 | 13308 ft | 281 kts | 266° |
| 2026-04-17 10:25 | 51.01044 | 0.73809 | 13059 ft | 283 kts | 283° |
| 2026-04-17 10:26 | 51.05898 | 0.61910 | 11094 ft | 284 kts | 301° |
| 2026-04-17 10:27 | 51.07033 | 0.59341 | 10709 ft | 283 kts | 301° |
| 2026-04-17 10:27 | 51.08160 | 0.56789 | 10323 ft | 282 kts | 301° |
| 2026-04-17 10:27 | 51.09283 | 0.54244 | 9981 ft | 279 kts | 301° |
| 2026-04-17 10:27 | 51.10389 | 0.51720 | 9610 ft | 278 kts | 301° |
| 2026-04-17 10:28 | 51.11488 | 0.49207 | 9232 ft | 276 kts | 301° |
| 2026-04-17 10:28 | 51.12578 | 0.46707 | 8853 ft | 274 kts | 301° |
| 2026-04-17 10:28 | 51.13659 | 0.44220 | 8485 ft | 272 kts | 301° |
| 2026-04-17 10:28 | 51.14732 | 0.41747 | 8113 ft | 270 kts | 301° |
| 2026-04-17 10:29 | 51.15740 | 0.39416 | 7761 ft | 269 kts | 301° |
| 2026-04-17 10:29 | 51.16798 | 0.36970 | 7384 ft | 267 kts | 300° |
| 2026-04-17 10:29 | 51.17510 | 0.34309 | 7035 ft | 259 kts | 275° |
| 2026-04-17 10:29 | 51.17336 | 0.31523 | 6652 ft | 254 kts | 248° |
| 2026-04-17 10:30 | 51.16408 | 0.29145 | 6236 ft | 254 kts | 233° |
| 2026-04-17 10:30 | 51.15297 | 0.26956 | 5845 ft | 254 kts | 231° |
| 2026-04-17 10:31 | 51.14697 | 0.25783 | 5661 ft | 253 kts | 233° |
| 2026-04-17 10:31 | 51.13591 | 0.23627 | 5285 ft | 251 kts | 231° |
| 2026-04-17 10:31 | 51.12478 | 0.21498 | 4892 ft | 250 kts | 231° |
| 2026-04-17 10:32 | 51.11504 | 0.19236 | 4531 ft | 247 kts | 248° |
| 2026-04-17 10:32 | 51.11267 | 0.17482 | 4275 ft | 247 kts | 268° |
| 2026-04-17 10:32 | 51.11999 | 0.14073 | 3796 ft | 250 kts | 308° |
| 2026-04-17 10:32 | 51.13406 | 0.12563 | 3750 ft | 242 kts | 339° |
| 2026-04-17 10:33 | 51.14482 | 0.12212 | 3754 ft | 235 kts | 349° |
| 2026-04-17 10:33 | 51.16556 | 0.11816 | 4006 ft | 215 kts | 350° |
| 2026-04-17 10:33 | 51.18017 | 0.11583 | 4042 ft | 206 kts | 345° |
| 2026-04-17 10:33 | 51.18882 | 0.11075 | 4032 ft | 198 kts | 320° |
| 2026-04-17 10:34 | 51.19583 | 0.09377 | 3844 ft | 181 kts | 274° |
| 2026-04-17 10:34 | 51.19230 | 0.07561 | 3494 ft | 177 kts | 229° |
| 2026-04-17 10:34 | 51.18349 | 0.06176 | 3206 ft | 178 kts | 235° |
| 2026-04-17 10:34 | 51.18012 | 0.04294 | 2985 ft | 180 kts | 261° |
| 2026-04-17 10:35 | 51.17763 | 0.02358 | 2750 ft | 181 kts | 255° |
| 2026-04-17 10:35 | 51.17482 | 0.00434 | 2493 ft | 176 kts | 255° |
| 2026-04-17 10:35 | 51.17220 | -0.01441 | 2256 ft | 171 kts | 257° |
| 2026-04-17 10:35 | 51.16972 | -0.03251 | 2036 ft | 163 kts | 256° |
| 2026-04-17 10:36 | 51.16740 | -0.04950 | 1802 ft | 149 kts | 256° |
| 2026-04-17 10:36 | 51.16528 | -0.06510 | 1618 ft | 140 kts | 256° |
| 2026-04-17 10:36 | 51.16325 | -0.07994 | 1429 ft | 136 kts | 255° |
| 2026-04-17 10:36 | 51.16131 | -0.09416 | 1257 ft | 133 kts | 255° |
| 2026-04-17 10:37 | 51.15936 | -0.10839 | 1061 ft | 135 kts | 256° |
| 2026-04-17 10:37 | 51.15866 | -0.11356 | 994 ft | 136 kts | 252° |
| 2026-04-17 10:39 | 51.14764 | -0.19660 | 208 ft | 9 kts | 276° |
| 2026-04-17 10:39 | 51.14773 | -0.19746 | 211 ft | 10 kts | 282° |
| 2026-04-17 10:39 | 51.14794 | -0.19890 | 208 ft | 16 kts | 282° |
| 2026-04-17 10:39 | 51.14810 | -0.20005 | 208 ft | 1 kts | 283° |
| 2026-04-17 10:40 | 51.14816 | -0.20028 | 211 ft | 0 kts | 298° |
| 2026-04-17 10:41 | 51.14819 | -0.20034 | 209 ft | 3 kts | 305° |
| 2026-04-17 10:41 | 51.14856 | -0.20030 | 212 ft | 9 kts | 45° |
| 2026-04-17 10:42 | 51.14877 | -0.19911 | 212 ft | 11 kts | 77° |
| 2026-04-17 10:42 | 51.14893 | -0.19801 | 210 ft | 10 kts | 77° |
| 2026-04-17 10:42 | 51.14909 | -0.19676 | 209 ft | 14 kts | 78° |
| 2026-04-17 10:42 | 51.14932 | -0.19509 | 212 ft | 16 kts | 77° |
| 2026-04-17 10:43 | 51.14954 | -0.19355 | 208 ft | 12 kts | 77° |
| 2026-04-17 10:43 | 51.14971 | -0.19230 | 210 ft | 12 kts | 78° |
| 2026-04-17 10:43 | 51.14989 | -0.19097 | 211 ft | 13 kts | 77° |
| 2026-04-17 10:43 | 51.15011 | -0.18934 | 207 ft | 17 kts | 78° |
| 2026-04-17 10:44 | 51.15036 | -0.18753 | 205 ft | 16 kts | 77° |
| 2026-04-17 10:44 | 51.15060 | -0.18582 | 207 ft | 15 kts | 77° |
| 2026-04-17 10:44 | 51.15083 | -0.18428 | 207 ft | 14 kts | 77° |
| 2026-04-17 10:44 | 51.15102 | -0.18284 | 209 ft | 13 kts | 78° |
| 2026-04-17 10:45 | 51.15148 | -0.18199 | 208 ft | 10 kts | 7° |
| 2026-04-17 10:45 | 51.15211 | -0.18219 | 205 ft | 9 kts | 347° |
| 2026-04-17 10:45 | 51.15276 | -0.18242 | 205 ft | 11 kts | 347° |
| 2026-04-17 10:45 | 51.15368 | -0.18272 | 205 ft | 15 kts | 348° |
| 2026-04-17 10:46 | 51.15468 | -0.18307 | 208 ft | 14 kts | 347° |
| 2026-04-17 10:46 | 51.15561 | -0.18339 | 205 ft | 13 kts | 347° |
| 2026-04-17 10:46 | 51.15643 | -0.18327 | 207 ft | 12 kts | 48° |
| 2026-04-17 10:46 | 51.15666 | -0.18210 | 207 ft | 11 kts | 78° |
| 2026-04-17 10:47 | 51.15681 | -0.18094 | 208 ft | 12 kts | 77° |
| 2026-04-17 10:47 | 51.15742 | -0.18047 | 211 ft | 10 kts | 348° |
| 2026-04-17 10:47 | 51.15798 | -0.18051 | 207 ft | 7 kts | 43° |
| 2026-04-17 10:47 | 51.15812 | -0.17987 | 208 ft | 6 kts | 77° |
| 2026-04-17 10:48 | 51.15819 | -0.17938 | 205 ft | 0 kts | 78° |